Time;durP1;ratioP1;P1;durP2;ratioP2;P2;SDS_P1;SDS_P2;PMS_P1;PMS_P2;Temp;Humidity;BMP_temperature;BMP_pressure;BME280_temperature;BME280_humidity;BME280_pressure;Samples;Min_cycle;Max_cycle;Signal;HPM_P1;HPM_P2
2023/09/21 00:00:10;;;;;;;2.67;1.70;;;16.40;99.90;;;;;;5043302;28;20219;-84
2023/09/21 00:02:44;;;;;;;4.63;1.80;;;16.40;99.90;;;;;;5042814;28;20223;-84
2023/09/21 00:05:11;;;;;;;2.83;1.53;;;16.30;99.90;;;;;;5024337;28;20983;-84
2023/09/21 00:07:38;;;;;;;3.77;1.90;;;16.30;99.90;;;;;;5043191;28;21180;-85
2023/09/21 00:10:06;;;;;;;5.07;2.07;;;16.30;99.90;;;;;;5025176;28;20283;-85
2023/09/21 00:12:34;;;;;;;3.60;1.60;;;16.30;99.90;;;;;;5042960;28;20237;-84
2023/09/21 00:15:12;;;;;;;2.27;1.80;;;16.30;99.90;;;;;;5020421;28;20228;-84
2023/09/21 00:17:40;;;;;;;3.43;1.60;;;16.20;99.90;;;;;;5040236;28;20872;-83
2023/09/21 00:20:17;;;;;;;4.07;1.97;;;16.20;99.90;;;;;;5044288;28;20311;-82
2023/09/21 00:22:44;;;;;;;2.73;1.83;;;16.20;99.90;;;;;;5035280;28;20227;-86
2023/09/21 00:25:11;;;;;;;3.83;1.90;;;16.20;99.90;;;;;;5019148;28;20233;-85
2023/09/21 00:27:39;;;;;;;4.13;1.80;;;16.10;99.90;;;;;;5044097;28;20220;-83
2023/09/21 00:30:07;;;;;;;2.97;1.70;;;16.10;99.90;;;;;;5025460;28;20862;-85
2023/09/21 00:32:39;;;;;;;4.70;1.80;;;16.10;99.90;;;;;;5043106;28;20233;-85
2023/09/21 00:35:10;;;;;;;3.87;1.77;;;16.00;99.90;;;;;;5037189;28;20220;-84
2023/09/21 00:37:38;;;;;;;5.33;2.30;;;16.10;99.90;;;;;;5026269;28;20239;-84
2023/09/21 00:40:21;;;;;;;2.83;1.70;;;16.00;99.90;;;;;;5038874;28;20224;-84
2023/09/21 00:42:49;;;;;;;2.60;2.00;;;16.00;99.90;;;;;;5036652;28;20244;-83
2023/09/21 00:45:18;;;;;;;3.20;1.70;;;16.00;99.90;;;;;;5046775;28;20220;-82
2023/09/21 00:47:49;;;;;;;2.73;2.00;;;16.00;99.90;;;;;;5046576;28;20231;-83
2023/09/21 00:50:21;;;;;;;2.33;1.67;;;16.00;99.90;;;;;;5046632;28;20223;-82
2023/09/21 00:52:51;;;;;;;3.00;1.77;;;16.00;99.90;;;;;;5046983;28;20250;-83
2023/09/21 00:55:23;;;;;;;1.73;1.53;;;15.90;99.90;;;;;;5064649;28;20219;-83
2023/09/21 00:57:53;;;;;;;3.17;2.07;;;16.00;99.90;;;;;;5053723;28;20226;-83
2023/09/21 01:00:26;;;;;;;1.93;1.70;;;15.90;99.90;;;;;;5067049;28;20223;-83
2023/09/21 01:02:54;;;;;;;2.10;1.90;;;15.90;99.90;;;;;;5045506;28;20227;-85
2023/09/21 01:05:23;;;;;;;2.40;1.90;;;15.90;99.90;;;;;;5071043;28;20285;-86
2023/09/21 01:07:50;;;;;;;4.50;1.93;;;15.80;99.90;;;;;;5055772;28;20219;-85
2023/09/21 01:10:21;;;;;;;2.93;1.83;;;15.90;99.90;;;;;;5041255;28;20310;-83
2023/09/21 01:12:51;;;;;;;5.43;2.07;;;15.80;99.90;;;;;;5054708;28;20244;-84
2023/09/21 01:15:20;;;;;;;3.33;1.70;;;15.80;99.90;;;;;;5040690;28;20216;-84
2023/09/21 01:17:47;;;;;;;4.17;2.07;;;15.70;99.90;;;;;;5059045;28;20582;-86
2023/09/21 01:20:17;;;;;;;3.37;1.80;;;15.70;99.90;;;;;;5038887;28;20223;-84
2023/09/21 01:22:52;;;;;;;2.67;1.70;;;15.70;99.90;;;;;;5058614;28;20223;-85
2023/09/21 01:25:21;;;;;;;2.43;1.80;;;15.70;99.90;;;;;;5056957;28;20850;-84
2023/09/21 01:27:51;;;;;;;3.60;1.80;;;15.60;99.90;;;;;;5040728;28;20239;-83
2023/09/21 01:30:18;;;;;;;3.03;2.00;;;15.60;99.90;;;;;;5041837;28;20941;-84
2023/09/21 01:32:48;;;;;;;2.17;1.60;;;15.50;99.90;;;;;;5039526;28;20224;-85
2023/09/21 01:35:16;;;;;;;2.70;1.80;;;15.50;99.90;;;;;;5060630;28;20235;-84
2023/09/21 01:37:45;;;;;;;3.73;1.93;;;15.50;99.90;;;;;;5045223;28;20235;-84
2023/09/21 01:40:16;;;;;;;2.20;1.60;;;15.50;99.90;;;;;;5046107;28;20246;-83
2023/09/21 01:42:48;;;;;;;5.57;2.17;;;15.50;99.90;;;;;;5048401;28;20225;-84
2023/09/21 01:45:16;;;;;;;2.47;1.80;;;15.50;99.90;;;;;;5047429;28;20745;-81
2023/09/21 01:47:43;;;;;;;5.17;1.83;;;15.50;99.90;;;;;;5045210;28;20232;-81
2023/09/21 01:50:12;;;;;;;2.60;2.00;;;15.40;99.90;;;;;;5062181;28;20235;-80
2023/09/21 01:52:39;;;;;;;3.30;1.93;;;15.40;99.90;;;;;;5039188;28;20215;-81
2023/09/21 01:55:10;;;;;;;2.07;1.70;;;15.40;99.90;;;;;;5044366;28;20215;-82
2023/09/21 01:57:37;;;;;;;3.53;2.30;;;15.40;99.90;;;;;;5056159;28;20223;-82
2023/09/21 02:00:12;;;;;;;4.50;2.23;;;15.30;99.90;;;;;;5043403;28;20221;-83
2023/09/21 02:02:40;;;;;;;3.30;1.70;;;15.30;99.90;;;;;;5055643;28;20239;-83
2023/09/21 02:05:12;;;;;;;3.40;1.77;;;15.30;99.90;;;;;;5038009;28;21045;-83
2023/09/21 02:07:40;;;;;;;3.37;1.77;;;15.20;99.90;;;;;;5041736;28;20738;-82
2023/09/21 02:10:11;;;;;;;2.40;1.77;;;15.20;99.90;;;;;;5042935;28;20253;-81
2023/09/21 02:12:39;;;;;;;2.60;2.00;;;15.20;99.90;;;;;;5060175;28;20799;-80
2023/09/21 02:15:11;;;;;;;4.23;2.13;;;15.20;99.90;;;;;;5061574;28;20214;-80
2023/09/21 02:17:39;;;;;;;2.67;1.93;;;15.20;99.90;;;;;;5043074;28;20218;-80
2023/09/21 02:20:14;;;;;;;2.20;1.77;;;15.10;99.90;;;;;;5043353;28;20230;-81
2023/09/21 02:22:43;;;;;;;3.13;1.90;;;15.10;99.90;;;;;;5043493;28;20226;-81
2023/09/21 02:25:11;;;;;;;3.03;1.80;;;15.10;99.90;;;;;;5046454;28;20242;-81
2023/09/21 02:27:39;;;;;;;3.50;1.90;;;15.00;99.90;;;;;;5041618;28;20867;-81
2023/09/21 02:30:14;;;;;;;2.80;1.93;;;15.00;99.90;;;;;;5044246;28;20242;-81
2023/09/21 02:32:42;;;;;;;1.90;1.57;;;15.00;99.90;;;;;;5047174;28;20230;-81
2023/09/21 02:35:13;;;;;;;2.43;1.70;;;15.00;99.90;;;;;;5060108;28;20227;-82
2023/09/21 02:37:44;;;;;;;4.63;1.93;;;15.00;99.90;;;;;;5045510;28;20265;-81
2023/09/21 02:40:14;;;;;;;3.20;1.80;;;15.00;99.90;;;;;;5058939;28;20721;-81
2023/09/21 02:42:43;;;;;;;2.50;1.73;;;15.00;99.90;;;;;;5045077;28;20308;-81
2023/09/21 02:45:12;;;;;;;3.30;1.80;;;15.00;99.90;;;;;;5047218;28;20246;-80
2023/09/21 02:47:41;;;;;;;4.23;1.90;;;15.00;99.90;;;;;;5065438;28;20234;-80
2023/09/21 02:50:15;;;;;;;1.93;1.63;;;14.90;99.90;;;;;;5040868;28;20221;-80
2023/09/21 02:52:47;;;;;;;3.03;1.93;;;14.90;99.90;;;;;;5067153;28;20336;-81
2023/09/21 02:55:17;;;;;;;4.13;2.17;;;14.90;99.90;;;;;;5045975;28;20254;-81
2023/09/21 02:57:45;;;;;;;7.27;2.33;;;14.90;99.90;;;;;;5045393;28;20219;-81
2023/09/21 03:00:26;;;;;;;4.40;1.87;;;14.80;99.90;;;;;;5042888;28;20227;-81
2023/09/21 03:02:54;;;;;;;2.63;1.90;;;14.80;99.90;;;;;;5047169;28;20226;-81
2023/09/21 03:05:21;;;;;;;3.47;1.90;;;14.80;99.90;;;;;;5065976;28;20222;-80
2023/09/21 03:07:48;;;;;;;4.20;2.40;;;14.80;99.90;;;;;;5043600;28;20227;-80
2023/09/21 03:10:17;;;;;;;3.00;2.10;;;14.70;99.90;;;;;;5068768;28;20368;-80
2023/09/21 03:12:47;;;;;;;2.77;1.73;;;14.70;99.90;;;;;;5036292;28;20260;-80
2023/09/21 03:15:18;;;;;;;2.83;2.00;;;14.70;99.90;;;;;;5046946;28;20226;-81
2023/09/21 03:17:47;;;;;;;2.40;2.03;;;14.70;99.90;;;;;;5050016;28;20222;-80
2023/09/21 03:20:28;;;;;;;3.40;1.83;;;14.60;99.90;;;;;;5049959;28;20225;-81
2023/09/21 03:22:56;;;;;;;4.70;2.00;;;14.70;99.90;;;;;;5051842;28;20313;-80
2023/09/21 03:25:27;;;;;;;3.53;2.07;;;14.60;99.90;;;;;;5065230;28;20227;-80
2023/09/21 03:27:55;;;;;;;3.03;2.03;;;14.60;99.90;;;;;;5051892;28;20226;-80
2023/09/21 03:30:24;;;;;;;2.93;1.70;;;14.60;99.90;;;;;;5065327;28;20845;-81
2023/09/21 03:32:52;;;;;;;2.10;1.70;;;14.60;99.90;;;;;;5064946;28;20223;-81
2023/09/21 03:35:20;;;;;;;2.70;1.97;;;14.60;99.90;;;;;;5047653;28;20492;-80
2023/09/21 03:37:49;;;;;;;3.67;2.10;;;14.60;99.90;;;;;;5045289;28;20860;-80
2023/09/21 03:40:17;;;;;;;3.97;1.90;;;14.60;99.90;;;;;;5050452;28;20229;-80
2023/09/21 03:42:44;;;;;;;3.50;2.00;;;14.60;99.90;;;;;;5049229;28;20321;-80
2023/09/21 03:45:15;;;;;;;2.40;2.10;;;14.50;99.90;;;;;;5043613;28;22240;-80
2023/09/21 03:47:44;;;;;;;4.33;1.90;;;14.50;99.90;;;;;;5041214;28;20800;-80
2023/09/21 03:50:12;;;;;;;2.47;1.80;;;14.50;99.90;;;;;;5045860;28;20219;-79
2023/09/21 03:52:40;;;;;;;3.13;2.03;;;14.50;99.90;;;;;;5051187;28;20228;-80
2023/09/21 03:55:10;;;;;;;2.40;2.00;;;14.50;99.90;;;;;;5050482;28;20219;-81
2023/09/21 03:57:37;;;;;;;5.30;2.20;;;14.40;99.90;;;;;;5067339;28;20227;-80
2023/09/21 04:00:18;;;;;;;2.87;1.87;;;14.40;99.90;;;;;;5046936;28;20226;-80
2023/09/21 04:02:46;;;;;;;3.90;1.90;;;14.40;99.90;;;;;;5043547;28;20222;-80
2023/09/21 04:05:20;;;;;;;2.17;1.70;;;14.40;99.90;;;;;;5063729;28;20305;-80
2023/09/21 04:07:49;;;;;;;3.87;2.40;;;14.40;99.90;;;;;;5061632;28;22151;-81
2023/09/21 04:10:16;;;;;;;3.43;2.60;;;14.40;99.90;;;;;;5050560;28;20246;-79
2023/09/21 04:12:42;;;;;;;3.97;2.13;;;14.40;99.90;;;;;;5062129;28;20284;-79
2023/09/21 04:15:11;;;;;;;5.13;2.20;;;14.40;99.90;;;;;;5044469;28;20249;-80
2023/09/21 04:17:38;;;;;;;2.97;2.00;;;14.40;99.90;;;;;;5049686;28;20266;-80
2023/09/21 04:20:11;;;;;;;4.00;2.60;;;14.30;99.90;;;;;;5066415;28;20649;-82
2023/09/21 04:22:38;;;;;;;4.07;2.30;;;14.40;99.90;;;;;;5075087;28;20230;-79
2023/09/21 04:25:09;;;;;;;2.30;1.83;;;14.40;99.90;;;;;;5052415;28;20233;-79
2023/09/21 04:27:37;;;;;;;4.47;2.10;;;14.40;99.90;;;;;;5066716;28;20235;-79
2023/09/21 04:30:06;;;;;;;2.70;2.13;;;14.40;99.90;;;;;;5048922;28;20215;-79
2023/09/21 04:32:34;;;;;;;5.70;2.30;;;14.40;99.90;;;;;;5042008;28;20778;-80
2023/09/21 04:35:03;;;;;;;4.50;2.07;;;14.40;99.90;;;;;;5043518;28;20258;-83
2023/09/21 04:37:32;;;;;;;2.97;2.10;;;14.40;99.90;;;;;;5045336;28;20231;-78
2023/09/21 04:40:00;;;;;;;3.97;2.47;;;14.40;99.90;;;;;;5043535;28;20231;-78
2023/09/21 04:42:29;;;;;;;4.00;2.10;;;14.40;99.90;;;;;;5065829;28;20222;-80
2023/09/21 04:44:56;;;;;;;3.57;2.03;;;14.40;99.90;;;;;;5060691;28;20286;-80
2023/09/21 04:47:27;;;;;;;3.57;2.27;;;14.40;99.90;;;;;;5045061;28;20644;-81
2023/09/21 04:49:54;;;;;;;3.23;2.00;;;14.40;99.90;;;;;;5050386;28;20770;-80
2023/09/21 04:52:22;;;;;;;4.30;2.20;;;14.50;99.90;;;;;;5060916;28;20980;-80
2023/09/21 04:54:53;;;;;;;3.73;2.03;;;14.50;99.90;;;;;;5044879;28;20225;-80
2023/09/21 04:57:21;;;;;;;5.27;2.17;;;14.50;99.90;;;;;;5045673;28;20230;-80
2023/09/21 04:59:48;;;;;;;2.67;2.13;;;14.50;99.90;;;;;;5047074;28;20305;-80
2023/09/21 05:02:15;;;;;;;3.47;2.07;;;14.40;99.90;;;;;;5050036;28;20491;-80
2023/09/21 05:04:42;;;;;;;3.90;2.20;;;14.50;99.90;;;;;;5047595;28;20301;-80
2023/09/21 05:07:09;;;;;;;4.83;2.20;;;14.50;99.90;;;;;;5046853;28;20814;-80
2023/09/21 05:09:35;;;;;;;2.33;2.00;;;14.50;99.90;;;;;;5066830;28;20222;-80
2023/09/21 05:12:06;;;;;;;4.33;2.50;;;14.50;99.90;;;;;;5063642;28;20254;-80
2023/09/21 05:14:33;;;;;;;3.87;2.17;;;14.50;99.90;;;;;;5047092;28;20232;-80
2023/09/21 05:17:00;;;;;;;3.17;2.20;;;14.50;99.90;;;;;;5061438;28;20330;-81
2023/09/21 05:19:27;;;;;;;3.13;1.90;;;14.50;99.90;;;;;;5046345;28;20373;-80
2023/09/21 05:21:56;;;;;;;3.93;2.47;;;14.50;99.90;;;;;;5043401;28;20249;-80
2023/09/21 05:24:24;;;;;;;4.00;2.20;;;14.60;99.90;;;;;;5060865;28;20226;-80
2023/09/21 05:26:52;;;;;;;4.00;1.97;;;14.60;99.90;;;;;;5046628;28;20239;-80
2023/09/21 05:29:20;;;;;;;3.23;2.00;;;14.60;99.90;;;;;;5032167;28;20324;-80
2023/09/21 05:31:48;;;;;;;3.13;2.30;;;14.70;99.90;;;;;;5039151;28;21015;-80
2023/09/21 05:34:15;;;;;;;3.53;2.10;;;14.80;99.90;;;;;;5038062;28;20230;-79
2023/09/21 05:36:42;;;;;;;4.73;2.10;;;14.80;99.90;;;;;;5052719;28;20209;-79
2023/09/21 05:39:09;;;;;;;4.10;2.60;;;14.80;99.90;;;;;;5037615;28;20219;-79
2023/09/21 05:41:36;;;;;;;3.47;2.00;;;14.90;99.90;;;;;;5044635;28;20227;-79
2023/09/21 05:44:04;;;;;;;4.40;2.30;;;14.90;99.90;;;;;;5058931;28;20231;-79
2023/09/21 05:46:32;;;;;;;3.33;2.10;;;14.90;99.90;;;;;;5038188;28;20343;-79
2023/09/21 05:48:59;;;;;;;4.23;2.00;;;15.00;99.90;;;;;;5058687;28;20223;-78
2023/09/21 05:51:26;;;;;;;3.23;2.00;;;15.00;99.90;;;;;;5053063;28;20226;-80
2023/09/21 05:53:53;;;;;;;2.67;1.90;;;15.00;99.90;;;;;;5049314;28;20224;-81
2023/09/21 05:56:20;;;;;;;2.87;2.07;;;15.10;99.90;;;;;;5038980;28;20326;-79
2023/09/21 05:58:47;;;;;;;3.90;2.20;;;15.10;99.90;;;;;;5059830;28;20214;-79
2023/09/21 06:01:14;;;;;;;3.77;2.40;;;15.10;99.90;;;;;;5025809;28;20223;-80
2023/09/21 06:03:42;;;;;;;5.10;2.40;;;15.10;99.90;;;;;;5050274;28;20227;-80
2023/09/21 06:06:09;;;;;;;3.20;2.10;;;15.20;99.90;;;;;;5038022;28;20918;-79
2023/09/21 06:08:37;;;;;;;3.70;2.20;;;15.20;99.90;;;;;;5058339;28;20232;-79
2023/09/21 06:11:04;;;;;;;3.50;2.17;;;15.20;99.90;;;;;;5059739;28;20234;-80
2023/09/21 06:13:31;;;;;;;3.17;2.40;;;15.30;99.90;;;;;;5059256;28;20237;-79
2023/09/21 06:15:58;;;;;;;3.63;2.33;;;15.30;99.90;;;;;;5063569;28;20804;-79
2023/09/21 06:18:25;;;;;;;3.67;2.13;;;15.30;99.90;;;;;;5043244;28;20228;-79
2023/09/21 06:20:55;;;;;;;2.70;2.23;;;15.40;99.90;;;;;;5059940;28;20634;-79
2023/09/21 06:23:22;;;;;;;4.93;2.00;;;15.40;99.90;;;;;;5062184;28;20229;-79
2023/09/21 06:25:49;;;;;;;3.70;2.40;;;15.50;99.90;;;;;;5040409;28;20318;-79
2023/09/21 06:28:17;;;;;;;3.87;1.83;;;15.50;99.90;;;;;;5060873;28;20223;-79
2023/09/21 06:30:44;;;;;;;4.30;2.20;;;15.60;99.90;;;;;;5060853;28;20228;-79
2023/09/21 06:33:11;;;;;;;4.57;2.67;;;15.70;99.90;;;;;;5062511;28;20314;-80
2023/09/21 06:35:38;;;;;;;4.97;1.97;;;15.60;99.90;;;;;;5061532;28;20311;-80
2023/09/21 06:38:06;;;;;;;3.67;2.20;;;15.80;99.90;;;;;;5059312;28;20318;-79
2023/09/21 06:40:36;;;;;;;3.00;2.07;;;15.80;99.90;;;;;;5046313;28;20222;-79
2023/09/21 06:43:05;;;;;;;3.70;2.40;;;15.90;99.90;;;;;;5042355;28;20216;-80
2023/09/21 06:45:33;;;;;;;4.00;2.23;;;15.90;99.90;;;;;;5040378;28;20224;-79
2023/09/21 06:48:01;;;;;;;3.50;2.10;;;16.00;99.90;;;;;;5041600;28;20231;-80
2023/09/21 06:50:28;;;;;;;4.17;2.00;;;16.00;99.90;;;;;;5021209;28;20226;-79
2023/09/21 06:52:55;;;;;;;4.90;2.47;;;16.00;99.90;;;;;;5037267;28;20226;-80
2023/09/21 06:55:23;;;;;;;3.17;2.00;;;16.00;99.90;;;;;;5020732;28;20208;-79
2023/09/21 06:57:50;;;;;;;4.53;2.50;;;16.10;99.90;;;;;;5049224;28;20314;-80
2023/09/21 07:00:17;;;;;;;4.53;2.33;;;16.10;99.90;;;;;;5028506;28;20226;-80
2023/09/21 07:02:44;;;;;;;3.70;2.20;;;16.20;99.90;;;;;;5047597;28;20246;-79
2023/09/21 07:05:12;;;;;;;3.30;2.27;;;16.30;99.90;;;;;;5028904;28;20806;-79
2023/09/21 07:07:41;;;;;;;2.83;2.13;;;16.20;99.90;;;;;;5045724;28;20259;-79
2023/09/21 07:10:10;;;;;;;3.37;2.30;;;16.30;99.90;;;;;;5029911;28;20565;-80
2023/09/21 07:12:39;;;;;;;3.63;1.93;;;16.30;99.90;;;;;;5063111;28;20223;-80
2023/09/21 07:15:08;;;;;;;2.63;1.77;;;16.30;99.90;;;;;;5033536;28;20224;-80
2023/09/21 07:17:36;;;;;;;3.03;2.13;;;16.40;99.90;;;;;;5041840;28;20510;-80
2023/09/21 07:20:04;;;;;;;3.17;2.20;;;16.40;99.90;;;;;;5037636;28;20231;-80
2023/09/21 07:22:31;;;;;;;2.57;2.10;;;16.50;99.90;;;;;;5036909;28;20267;-80
2023/09/21 07:24:58;;;;;;;3.57;2.10;;;16.50;99.90;;;;;;5056644;28;20644;-80
2023/09/21 07:27:24;;;;;;;3.33;2.20;;;16.60;99.90;;;;;;5034877;28;20246;-80
2023/09/21 07:29:53;;;;;;;3.73;1.83;;;16.70;99.90;;;;;;5041331;28;20251;-80
2023/09/21 07:32:20;;;;;;;2.50;2.00;;;16.80;99.90;;;;;;5041401;28;20224;-80
2023/09/21 07:34:48;;;;;;;4.25;2.20;;;16.80;99.90;;;;;;5037377;28;20239;-80
2023/09/21 07:37:16;;;;;;;3.67;2.20;;;16.90;99.90;;;;;;5030931;28;20216;-79
2023/09/21 07:39:42;;;;;;;4.13;2.23;;;17.00;99.90;;;;;;5047258;28;20235;-80
2023/09/21 07:42:09;;;;;;;5.65;2.10;;;17.10;99.90;;;;;;5034665;28;20275;-80
2023/09/21 07:44:37;;;;;;;3.15;2.13;;;17.30;99.90;;;;;;5034406;28;20252;-81
2023/09/21 07:47:07;;;;;;;4.40;2.35;;;17.40;99.90;;;;;;5045309;28;20665;-81
2023/09/21 07:49:34;;;;;;;2.40;2.10;;;17.50;99.90;;;;;;5025114;28;20325;-81
2023/09/21 07:52:00;;;;;;;2.53;2.27;;;17.60;99.90;;;;;;5029004;28;20932;-81
2023/09/21 07:54:27;;;;;;;3.63;2.00;;;17.70;99.90;;;;;;5048030;28;20627;-81
2023/09/21 07:56:54;;;;;;;3.00;1.90;;;17.70;99.90;;;;;;5045298;28;20282;-81
2023/09/21 07:59:21;;;;;;;2.45;1.90;;;17.80;99.90;;;;;;5031850;28;20781;-81
2023/09/21 08:01:48;;;;;;;3.45;2.08;;;17.80;99.90;;;;;;5046941;28;20221;-80
2023/09/21 08:04:20;;;;;;;3.20;2.25;;;17.90;99.90;;;;;;5047919;28;20236;-81
2023/09/21 08:06:47;;;;;;;3.25;2.15;;;18.00;99.90;;;;;;5030597;28;20267;-81
2023/09/21 08:09:14;;;;;;;5.35;2.42;;;18.10;99.90;;;;;;5044278;28;21134;-81
2023/09/21 08:11:41;;;;;;;2.65;1.95;;;18.20;99.90;;;;;;5046825;28;20788;-81
2023/09/21 08:14:08;;;;;;;2.30;1.73;;;18.30;99.90;;;;;;5029548;28;20289;-81
2023/09/21 08:16:35;;;;;;;2.80;2.17;;;18.40;99.90;;;;;;5033960;28;20226;-81
2023/09/21 08:19:02;;;;;;;3.70;2.17;;;18.60;99.90;;;;;;5029974;28;20221;-81
2023/09/21 08:21:31;;;;;;;4.32;2.10;;;18.90;99.90;;;;;;5029254;28;20232;-80
2023/09/21 08:23:57;;;;;;;5.40;1.85;;;19.20;99.90;;;;;;5032551;28;20226;-81
2023/09/21 08:26:25;;;;;;;2.65;1.80;;;19.60;99.90;;;;;;5029510;28;20573;-81
2023/09/21 08:28:52;;;;;;;2.35;1.70;;;20.00;99.90;;;;;;5049007;28;20224;-81
2023/09/21 08:31:19;;;;;;;3.00;1.80;;;20.50;99.90;;;;;;5025821;28;20649;-82
2023/09/21 08:33:46;;;;;;;5.85;2.50;;;20.90;99.90;;;;;;5028684;28;20780;-81
2023/09/21 08:36:15;;;;;;;4.78;2.15;;;21.40;99.90;;;;;;5028124;28;20523;-82
2023/09/21 08:38:43;;;;;;;2.80;1.95;;;21.80;99.90;;;;;;5047844;28;20228;-81
2023/09/21 08:41:11;;;;;;;3.25;1.90;;;22.20;99.10;;;;;;5027462;28;20227;-81
2023/09/21 08:43:39;;;;;;;3.25;1.85;;;22.60;99.90;;;;;;5039467;28;20239;-81
2023/09/21 08:46:06;;;;;;;2.38;1.73;;;22.90;98.00;;;;;;5050705;28;20216;-81
2023/09/21 08:48:34;;;;;;;2.40;1.70;;;23.20;98.80;;;;;;5049955;28;20219;-81
2023/09/21 08:51:03;;;;;;;2.40;1.83;;;23.60;98.20;;;;;;5046818;28;20286;-81
2023/09/21 08:53:29;;;;;;;3.78;2.28;;;24.00;98.20;;;;;;5065907;28;20317;-81
2023/09/21 08:55:58;;;;;;;3.40;1.70;;;24.20;96.80;;;;;;5066487;28;20323;-81
2023/09/21 08:58:27;;;;;;;3.80;2.15;;;24.50;95.60;;;;;;5059985;28;20223;-81
2023/09/21 09:00:55;;;;;;;3.47;2.03;;;24.70;95.30;;;;;;5067625;28;20262;-81
2023/09/21 09:03:25;;;;;;;3.78;1.90;;;24.90;95.90;;;;;;5045069;28;20228;-81
2023/09/21 09:05:53;;;;;;;2.53;1.67;;;25.00;94.90;;;;;;5062880;28;20216;-81
2023/09/21 09:08:20;;;;;;;2.10;1.70;;;25.30;95.80;;;;;;5063371;28;20822;-81
2023/09/21 09:10:47;;;;;;;4.30;2.03;;;25.50;94.80;;;;;;5060596;28;20225;-81
2023/09/21 09:13:15;;;;;;;2.88;1.90;;;25.60;93.10;;;;;;5062296;28;21243;-81
2023/09/21 09:15:45;;;;;;;3.97;2.03;;;25.60;92.50;;;;;;5043203;28;20261;-81
2023/09/21 09:18:13;;;;;;;6.30;2.00;;;25.70;93.70;;;;;;5060918;28;20220;-81
2023/09/21 09:20:39;;;;;;;2.90;1.75;;;25.90;94.00;;;;;;5065255;28;20211;-82
2023/09/21 09:23:10;;;;;;;2.63;1.60;;;25.80;92.60;;;;;;5050822;28;20232;-82
2023/09/21 09:25:37;;;;;;;3.83;1.80;;;25.80;92.10;;;;;;5043934;28;21652;-81
2023/09/21 09:28:05;;;;;;;4.40;1.83;;;25.60;92.50;;;;;;5060897;28;20230;-82
2023/09/21 09:30:33;;;;;;;2.53;1.88;;;25.40;92.30;;;;;;5043083;28;20231;-81
2023/09/21 09:33:02;;;;;;;4.10;1.90;;;25.10;93.00;;;;;;5066107;28;20243;-81
2023/09/21 09:35:30;;;;;;;3.05;1.70;;;24.90;93.30;;;;;;5043203;28;20223;-81
2023/09/21 09:37:58;;;;;;;1.85;1.60;;;24.70;93.80;;;;;;5069128;28;20827;-81
2023/09/21 09:40:28;;;;;;;2.15;1.73;;;24.70;93.40;;;;;;5051497;28;20315;-81
2023/09/21 09:42:58;;;;;;;3.33;1.80;;;24.90;94.10;;;;;;5046561;28;20219;-81
2023/09/21 09:45:26;;;;;;;3.10;2.20;;;25.10;93.10;;;;;;5039302;28;20314;-81
2023/09/21 09:47:56;;;;;;;4.78;2.35;;;25.30;93.90;;;;;;5049082;28;20230;-81
2023/09/21 09:50:24;;;;;;;3.22;1.88;;;25.60;93.50;;;;;;5064301;28;20223;-82
2023/09/21 09:53:00;;;;;;;2.00;1.70;;;26.00;93.30;;;;;;5067614;28;20224;-82
2023/09/21 09:55:31;;;;;;;3.45;2.10;;;26.30;92.30;;;;;;5062802;28;20299;-82
2023/09/21 09:57:59;;;;;;;2.70;1.80;;;26.60;91.90;;;;;;5044923;28;20299;-81
2023/09/21 10:00:27;;;;;;;4.22;1.88;;;26.90;92.40;;;;;;5060646;28;20279;-81
2023/09/21 10:02:57;;;;;;;3.53;2.03;;;27.10;91.90;;;;;;5062766;28;20231;-82
2023/09/21 10:05:26;;;;;;;3.20;1.88;;;27.20;91.00;;;;;;5066010;28;20247;-82
2023/09/21 10:07:54;;;;;;;3.03;1.90;;;27.10;90.30;;;;;;5048998;28;20395;-82
2023/09/21 10:10:22;;;;;;;2.80;1.67;;;27.10;89.30;;;;;;5065932;28;20215;-82
2023/09/21 10:12:52;;;;;;;2.70;1.90;;;27.00;89.60;;;;;;5063683;28;20952;-81
2023/09/21 10:15:22;;;;;;;2.55;1.63;;;26.90;90.20;;;;;;5050031;28;20228;-82
2023/09/21 10:17:50;;;;;;;2.85;1.77;;;27.00;90.20;;;;;;5047583;28;20582;-82
2023/09/21 10:20:27;;;;;;;2.42;1.52;;;27.10;90.40;;;;;;5043680;28;20232;-82
2023/09/21 10:22:54;;;;;;;3.42;1.80;;;27.30;90.40;;;;;;5064534;28;20246;-81
2023/09/21 10:25:38;;;;;;;2.70;1.80;;;27.50;89.10;;;;;;5060544;28;20725;-82
2023/09/21 10:28:38;;;;;;;3.80;1.83;;;27.60;85.70;;;;;;5064768;28;20241;-82
2023/09/21 10:31:24;;;;;;;2.97;1.60;;;27.70;85.40;;;;;;5061838;28;20220;-82
2023/09/21 10:34:09;;;;;;;2.40;1.80;;;27.80;85.70;;;;;;5059449;28;20230;-82
2023/09/21 10:36:43;;;;;;;2.35;1.58;;;27.90;85.40;;;;;;5054832;28;20211;-82
2023/09/21 10:39:28;;;;;;;3.10;1.60;;;27.80;83.60;;;;;;5040237;28;20222;-82
2023/09/21 10:42:26;;;;;;;3.45;2.17;;;27.70;83.90;;;;;;5057435;28;21007;-82
2023/09/21 10:44:56;;;;;;;2.05;1.70;;;27.40;82.20;;;;;;5057590;28;20764;-81
2023/09/21 10:47:30;;;;;;;2.22;1.60;;;27.20;82.90;;;;;;5064245;28;20262;-82
2023/09/21 10:49:59;;;;;;;2.72;1.73;;;27.00;82.40;;;;;;5060897;28;20338;-81
2023/09/21 10:52:30;;;;;;;3.03;1.63;;;26.90;83.60;;;;;;5045852;28;20223;-82
2023/09/21 10:54:58;;;;;;;2.10;1.77;;;26.80;82.90;;;;;;5048515;28;20222;-81
2023/09/21 10:57:26;;;;;;;3.72;1.80;;;26.70;83.60;;;;;;5046042;28;21021;-82
2023/09/21 10:59:53;;;;;;;3.15;1.80;;;26.60;84.90;;;;;;5061701;28;20702;-82
2023/09/21 11:02:20;;;;;;;3.08;1.90;;;26.50;85.10;;;;;;5043035;28;20231;-82
2023/09/21 11:04:48;;;;;;;2.22;1.80;;;26.40;86.10;;;;;;5046476;28;20305;-82
2023/09/21 11:07:16;;;;;;;3.58;2.00;;;26.30;86.10;;;;;;5061428;28;20287;-82
2023/09/21 11:09:44;;;;;;;2.35;1.58;;;26.30;87.00;;;;;;5056374;28;20255;-82
2023/09/21 11:12:13;;;;;;;2.42;1.77;;;26.30;87.20;;;;;;5049063;28;20487;-82
2023/09/21 11:14:42;;;;;;;2.60;1.48;;;26.50;86.70;;;;;;5040753;28;20247;-82
2023/09/21 11:17:11;;;;;;;5.28;1.67;;;26.60;85.90;;;;;;5063826;28;20223;-82
2023/09/21 11:19:38;;;;;;;2.45;1.70;;;26.90;85.60;;;;;;5060458;28;20294;-82
2023/09/21 11:22:05;;;;;;;2.05;1.40;;;27.00;83.50;;;;;;5036667;28;20266;-82
2023/09/21 11:24:32;;;;;;;4.40;1.40;;;27.10;82.40;;;;;;5066723;28;20239;-82
2023/09/21 11:27:03;;;;;;;1.88;1.50;;;27.20;82.10;;;;;;5066830;28;20224;-82
2023/09/21 11:29:30;;;;;;;2.33;1.30;;;27.20;79.40;;;;;;5034521;28;20807;-82
2023/09/21 11:31:57;;;;;;;2.47;1.45;;;27.20;80.10;;;;;;5046667;28;20244;-81
2023/09/21 11:34:25;;;;;;;1.95;1.63;;;27.20;81.00;;;;;;5041529;28;20694;-82
2023/09/21 11:36:51;;;;;;;1.80;1.60;;;27.30;81.00;;;;;;5065001;28;20234;-82
2023/09/21 11:39:22;;;;;;;2.30;1.63;;;27.40;82.50;;;;;;5070909;28;20218;-83
2023/09/21 11:41:52;;;;;;;2.35;1.70;;;27.40;81.50;;;;;;5050267;28;20238;-81
2023/09/21 11:44:20;;;;;;;2.60;1.63;;;27.40;80.90;;;;;;5067556;28;20314;-81
2023/09/21 11:46:48;;;;;;;2.50;1.60;;;27.40;81.40;;;;;;5049702;28;20595;-81
2023/09/21 11:49:17;;;;;;;2.55;1.50;;;27.40;80.10;;;;;;5065430;28;20251;-81
2023/09/21 11:51:44;;;;;;;3.30;1.48;;;27.50;81.50;;;;;;5062417;28;20299;-81
2023/09/21 11:54:12;;;;;;;2.67;2.08;;;27.50;81.30;;;;;;5068346;28;20223;-80
2023/09/21 11:56:42;;;;;;;1.58;1.30;;;27.60;80.80;;;;;;5064886;28;20219;-81
2023/09/21 11:59:09;;;;;;;2.53;1.40;;;27.70;80.80;;;;;;5064732;28;20227;-81
2023/09/21 12:01:37;;;;;;;2.47;1.58;;;27.50;81.00;;;;;;5050961;28;20933;-81
2023/09/21 12:04:04;;;;;;;3.15;1.40;;;27.40;81.10;;;;;;5067424;28;20227;-81
2023/09/21 12:06:32;;;;;;;3.60;1.38;;;27.30;81.70;;;;;;5062609;28;20762;-81
2023/09/21 12:08:59;;;;;;;2.90;1.38;;;27.10;82.20;;;;;;5051596;28;20223;-81
2023/09/21 12:11:26;;;;;;;2.63;1.30;;;27.00;82.20;;;;;;5044827;28;20227;-81
2023/09/21 12:13:52;;;;;;;1.65;1.40;;;26.90;83.60;;;;;;5052053;28;20771;-81
2023/09/21 12:16:19;;;;;;;2.65;1.52;;;26.70;83.50;;;;;;5063525;28;20219;-81
2023/09/21 12:18:48;;;;;;;2.00;1.15;;;26.70;84.30;;;;;;5063511;28;20215;-81
2023/09/21 12:21:18;;;;;;;2.08;1.20;;;26.80;85.40;;;;;;5063543;28;20607;-81
2023/09/21 12:23:45;;;;;;;4.03;1.40;;;26.80;84.90;;;;;;5060479;28;20236;-81
2023/09/21 12:26:12;;;;;;;1.55;1.25;;;26.70;84.60;;;;;;5046161;28;20219;-81
2023/09/21 12:28:39;;;;;;;1.80;1.20;;;26.70;85.10;;;;;;5066208;28;20644;-81
2023/09/21 12:31:07;;;;;;;1.70;1.30;;;26.60;84.60;;;;;;5043395;28;20292;-81
2023/09/21 12:33:35;;;;;;;1.88;1.40;;;26.60;86.00;;;;;;5065834;28;21012;-81
2023/09/21 12:36:04;;;;;;;2.85;1.30;;;26.70;87.00;;;;;;5068046;28;20226;-81
2023/09/21 12:38:32;;;;;;;1.80;1.48;;;26.80;86.40;;;;;;5047500;28;20254;-81
2023/09/21 12:41:00;;;;;;;2.05;1.35;;;26.80;85.80;;;;;;5064196;28;20234;-81
2023/09/21 12:43:28;;;;;;;2.80;1.30;;;26.70;85.00;;;;;;5043838;28;20227;-81
2023/09/21 12:45:54;;;;;;;3.53;1.30;;;26.90;85.80;;;;;;5063827;28;20222;-81
2023/09/21 12:48:21;;;;;;;2.70;1.20;;;26.90;86.60;;;;;;5046770;28;20291;-81
2023/09/21 12:50:48;;;;;;;2.92;1.50;;;26.90;85.50;;;;;;5064254;28;20228;-79
2023/09/21 12:53:16;;;;;;;1.98;1.58;;;26.70;85.20;;;;;;5061873;28;20327;-81
2023/09/21 12:55:44;;;;;;;3.90;1.80;;;26.80;85.30;;;;;;5064218;28;20220;-81